Time;durP1;ratioP1;P1;durP2;ratioP2;P2;SDS_P1;SDS_P2;PMS_P1;PMS_P2;Temp;Humidity;BMP_temperature;BMP_pressure;BME280_temperature;BME280_humidity;BME280_pressure;Samples;Min_cycle;Max_cycle;Signal;HPM_P1;HPM_P2
2024/01/17 00:01:58;;;;;;;8.70;5.55;;;0.10;99.90;;;;;;5070223;28;21127;-72
2024/01/17 00:04:25;;;;;;;10.40;6.18;;;0.00;99.90;;;;;;5069887;28;20175;-72
2024/01/17 00:06:51;;;;;;;11.60;7.97;;;0.00;99.90;;;;;;5035963;28;20211;-72
2024/01/17 00:09:18;;;;;;;10.63;6.60;;;0.00;99.90;;;;;;5047058;28;20192;-73
2024/01/17 00:11:44;;;;;;;14.80;7.25;;;0.00;99.90;;;;;;5043828;28;20961;-72
2024/01/17 00:14:10;;;;;;;9.20;6.47;;;0.00;99.90;;;;;;5035906;28;20182;-73
2024/01/17 00:16:37;;;;;;;10.77;6.97;;;-0.10;99.90;;;;;;5052529;28;20594;-72
2024/01/17 00:19:03;;;;;;;10.35;6.55;;;-0.10;99.90;;;;;;5045162;28;20201;-73
2024/01/17 00:21:29;;;;;;;10.02;5.38;;;-0.10;99.90;;;;;;5051851;28;20334;-73
2024/01/17 00:23:54;;;;;;;12.80;5.70;;;-0.10;99.90;;;;;;5051132;28;20251;-73
2024/01/17 00:26:20;;;;;;;9.80;6.60;;;-0.10;99.90;;;;;;5044693;28;20583;-73
2024/01/17 00:28:46;;;;;;;9.35;6.40;;;-0.10;99.90;;;;;;5052231;28;20207;-73
2024/01/17 00:31:12;;;;;;;9.67;7.63;;;-0.10;99.90;;;;;;5046754;28;20200;-73
2024/01/17 00:33:37;;;;;;;10.10;6.57;;;-0.10;99.90;;;;;;5069203;28;20183;-73
2024/01/17 00:36:04;;;;;;;12.33;7.50;;;-0.10;99.90;;;;;;5040695;28;20169;-73
2024/01/17 00:38:31;;;;;;;11.82;6.70;;;-0.10;99.90;;;;;;5057037;28;20208;-73
2024/01/17 00:40:57;;;;;;;8.65;6.20;;;-0.10;99.90;;;;;;5051395;28;20618;-73
2024/01/17 00:43:22;;;;;;;19.20;8.50;;;-0.10;99.90;;;;;;5061808;28;20184;-73
2024/01/17 00:45:48;;;;;;;10.97;6.53;;;-0.20;99.90;;;;;;5048765;28;20243;-73
2024/01/17 00:48:14;;;;;;;9.40;5.90;;;-0.20;99.90;;;;;;5034746;28;20203;-73
2024/01/17 00:50:40;;;;;;;10.70;5.70;;;-0.20;99.90;;;;;;5048637;28;20600;-73
2024/01/17 00:53:06;;;;;;;14.13;7.50;;;-0.20;99.90;;;;;;5031988;28;20183;-73
2024/01/17 00:55:32;;;;;;;11.68;7.80;;;-0.20;99.90;;;;;;5051998;28;21190;-73
2024/01/17 00:57:58;;;;;;;12.57;7.47;;;-0.20;99.90;;;;;;5052342;28;20615;-73
2024/01/17 01:00:23;;;;;;;9.50;7.30;;;-0.20;99.90;;;;;;5036881;28;20192;-73
2024/01/17 01:02:52;;;;;;;11.87;7.90;;;-0.20;99.90;;;;;;5035159;28;20551;-73
2024/01/17 01:05:17;;;;;;;11.00;6.10;;;-0.20;99.90;;;;;;5018787;28;20177;-73
2024/01/17 01:07:44;;;;;;;10.53;6.77;;;-0.20;99.90;;;;;;5044322;28;20250;-73
2024/01/17 01:10:09;;;;;;;11.00;6.25;;;-0.20;99.90;;;;;;5050143;28;20699;-73
2024/01/17 01:12:36;;;;;;;8.43;6.30;;;-0.20;99.90;;;;;;5051684;28;20251;-73
2024/01/17 01:15:01;;;;;;;11.68;7.00;;;-0.20;99.90;;;;;;5051130;28;20539;-73
2024/01/17 01:17:27;;;;;;;9.20;6.10;;;-0.20;99.90;;;;;;5035067;28;20168;-73
2024/01/17 01:19:55;;;;;;;9.80;6.10;;;-0.20;99.90;;;;;;5052084;28;21048;-72
2024/01/17 01:22:21;;;;;;;9.40;6.97;;;-0.20;99.90;;;;;;5051744;28;20972;-72
2024/01/17 01:24:47;;;;;;;9.13;6.30;;;-0.20;99.90;;;;;;5053084;28;20208;-73
2024/01/17 01:27:12;;;;;;;10.10;6.47;;;-0.20;99.90;;;;;;5077383;28;20249;-72
2024/01/17 01:29:38;;;;;;;8.70;6.00;;;-0.30;99.90;;;;;;5072124;28;20188;-73
2024/01/17 01:32:04;;;;;;;8.23;5.93;;;-0.20;99.90;;;;;;5030603;28;20537;-73
2024/01/17 01:34:29;;;;;;;8.97;4.87;;;-0.30;99.90;;;;;;5055051;28;20184;-73
2024/01/17 01:36:55;;;;;;;8.17;5.73;;;-0.20;99.90;;;;;;5055421;28;20635;-73
2024/01/17 01:39:21;;;;;;;12.20;6.40;;;-0.30;99.90;;;;;;5072911;28;20290;-73
2024/01/17 01:41:47;;;;;;;10.53;6.23;;;-0.20;99.90;;;;;;5052692;28;20546;-73
2024/01/17 01:44:12;;;;;;;12.33;7.80;;;-0.20;99.90;;;;;;5032454;28;20184;-73
2024/01/17 01:46:38;;;;;;;12.37;8.83;;;-0.30;99.90;;;;;;5026852;28;21112;-73
2024/01/17 01:49:04;;;;;;;12.10;7.18;;;-0.30;99.90;;;;;;5055228;28;20250;-73
2024/01/17 01:51:30;;;;;;;10.37;5.87;;;-0.30;99.90;;;;;;5074912;28;20180;-73
2024/01/17 01:54:01;;;;;;;9.45;7.20;;;-0.30;99.90;;;;;;5072621;28;21170;-73
2024/01/17 01:56:31;;;;;;;11.43;7.50;;;-0.30;99.90;;;;;;5054043;28;20177;-73
2024/01/17 01:58:58;;;;;;;14.43;7.07;;;-0.30;99.90;;;;;;5051151;28;20179;-73
2024/01/17 02:01:26;;;;;;;9.60;5.47;;;-0.30;99.90;;;;;;5055130;28;20168;-73
2024/01/17 02:03:53;;;;;;;8.18;6.53;;;-0.40;99.90;;;;;;5055332;28;20171;-74
2024/01/17 02:06:20;;;;;;;14.38;7.63;;;-0.30;99.90;;;;;;5057771;28;20180;-73
2024/01/17 02:08:46;;;;;;;13.88;6.63;;;-0.30;99.90;;;;;;5016711;28;20173;-73
2024/01/17 02:11:13;;;;;;;10.63;7.00;;;-0.40;99.90;;;;;;5052162;28;20230;-73
2024/01/17 02:13:40;;;;;;;10.05;7.55;;;-0.30;99.90;;;;;;5072190;28;20179;-74
2024/01/17 02:16:06;;;;;;;10.45;8.10;;;-0.40;99.90;;;;;;5037571;28;20173;-74
2024/01/17 02:18:31;;;;;;;11.57;8.25;;;-0.40;99.90;;;;;;5072345;28;20241;-73
2024/01/17 02:20:57;;;;;;;10.20;7.20;;;-0.40;99.90;;;;;;5046540;28;20762;-74
2024/01/17 02:23:28;;;;;;;7.60;6.67;;;-0.40;99.90;;;;;;5053250;28;20184;-74
2024/01/17 02:25:58;;;;;;;9.38;7.00;;;-0.40;99.90;;;;;;5041937;28;20591;-74
2024/01/17 02:28:28;;;;;;;11.63;7.57;;;-0.40;99.90;;;;;;5054246;28;20273;-73
2024/01/17 02:30:54;;;;;;;9.93;7.18;;;-0.50;99.90;;;;;;5036136;28;20842;-74
2024/01/17 02:33:20;;;;;;;11.63;8.88;;;-0.50;99.90;;;;;;5050311;28;20179;-73
2024/01/17 02:35:46;;;;;;;10.18;8.15;;;-0.50;99.90;;;;;;5066672;28;20649;-74
2024/01/17 02:38:12;;;;;;;9.90;7.33;;;-0.50;99.90;;;;;;5054452;28;20179;-74
2024/01/17 02:40:37;;;;;;;11.60;6.87;;;-0.50;99.90;;;;;;5072233;28;20580;-74
2024/01/17 02:43:04;;;;;;;11.50;6.93;;;-0.50;99.90;;;;;;5045362;28;20276;-74
2024/01/17 02:45:29;;;;;;;7.43;6.63;;;-0.50;99.90;;;;;;5053820;28;20265;-74
2024/01/17 02:47:55;;;;;;;14.13;8.03;;;-0.50;99.90;;;;;;5071897;28;20682;-73
2024/01/17 02:50:21;;;;;;;7.67;6.23;;;-0.50;99.90;;;;;;5033300;28;20220;-74
2024/01/17 02:52:48;;;;;;;10.38;6.60;;;-0.50;99.90;;;;;;5053631;28;20636;-73
2024/01/17 02:55:16;;;;;;;9.07;6.22;;;-0.40;99.90;;;;;;5070741;28;20592;-73
2024/01/17 02:57:43;;;;;;;11.45;7.95;;;-0.50;99.90;;;;;;5052553;28;20259;-73
2024/01/17 03:00:09;;;;;;;11.35;6.70;;;-0.40;99.90;;;;;;5071140;28;20771;-73
2024/01/17 03:02:35;;;;;;;9.07;5.97;;;-0.40;99.90;;;;;;5071615;28;20241;-74
2024/01/17 03:05:03;;;;;;;12.57;7.55;;;-0.40;99.90;;;;;;5070972;28;20184;-73
2024/01/17 03:07:32;;;;;;;8.60;6.50;;;-0.40;99.90;;;;;;5011820;28;20214;-73
2024/01/17 03:09:58;;;;;;;8.52;5.63;;;-0.40;99.90;;;;;;5053664;28;20256;-74
2024/01/17 03:12:24;;;;;;;10.55;6.90;;;-0.40;99.90;;;;;;5053703;28;20172;-73
2024/01/17 03:14:50;;;;;;;9.93;7.33;;;-0.40;99.90;;;;;;5036188;28;20177;-73
2024/01/17 03:17:16;;;;;;;17.08;7.78;;;-0.40;99.90;;;;;;5058966;28;20942;-73
2024/01/17 03:19:46;;;;;;;12.10;7.00;;;-0.40;99.90;;;;;;5044859;28;20697;-73
2024/01/17 03:22:16;;;;;;;10.50;7.72;;;-0.40;99.90;;;;;;5071409;28;20184;-73
2024/01/17 03:24:45;;;;;;;8.75;7.82;;;-0.40;99.90;;;;;;5049680;28;20180;-73
2024/01/17 03:27:12;;;;;;;11.15;8.18;;;-0.50;99.90;;;;;;5053125;28;20584;-73
2024/01/17 03:29:38;;;;;;;12.38;7.80;;;-0.50;99.90;;;;;;5066176;28;20181;-73
2024/01/17 03:32:04;;;;;;;10.17;7.37;;;-0.50;99.90;;;;;;5068040;28;20176;-73
2024/01/17 03:34:29;;;;;;;14.63;10.33;;;-0.50;99.90;;;;;;5052885;28;20629;-73
2024/01/17 03:36:55;;;;;;;12.90;9.13;;;-0.60;99.90;;;;;;5071236;28;20602;-74
2024/01/17 03:39:21;;;;;;;10.37;6.97;;;-0.60;99.90;;;;;;5052269;28;20215;-73
2024/01/17 03:41:46;;;;;;;10.80;8.73;;;-0.60;99.90;;;;;;5044897;28;20172;-73
2024/01/17 03:44:12;;;;;;;12.50;7.23;;;-0.60;99.90;;;;;;5052517;28;20259;-73
2024/01/17 03:46:38;;;;;;;8.67;6.83;;;-0.50;99.90;;;;;;5052527;28;20200;-73
2024/01/17 03:49:03;;;;;;;12.60;8.00;;;-0.60;99.90;;;;;;5035753;28;20261;-73
2024/01/17 03:51:29;;;;;;;12.70;8.80;;;-0.60;99.90;;;;;;5067339;28;20575;-73
2024/01/17 03:53:56;;;;;;;11.15;8.23;;;-0.60;99.90;;;;;;5031554;28;20541;-73
2024/01/17 03:56:23;;;;;;;12.23;6.85;;;-0.60;99.90;;;;;;5074782;28;20180;-73
2024/01/17 03:58:49;;;;;;;10.80;6.97;;;-0.50;99.90;;;;;;5052259;28;20168;-73
2024/01/17 04:01:14;;;;;;;9.80;6.80;;;-0.50;99.90;;;;;;5052933;28;20172;-73
2024/01/17 04:03:40;;;;;;;10.50;6.83;;;-0.50;99.90;;;;;;5061962;28;20199;-73
2024/01/17 04:06:06;;;;;;;11.27;7.30;;;-0.40;99.90;;;;;;5052721;28;20180;-73
2024/01/17 04:08:32;;;;;;;13.52;8.35;;;-0.40;99.90;;;;;;5052162;28;20582;-73
2024/01/17 04:10:58;;;;;;;10.30;7.73;;;-0.40;99.90;;;;;;5070795;28;20263;-73
2024/01/17 04:13:24;;;;;;;10.00;8.30;;;-0.40;99.90;;;;;;5051798;28;20606;-74
2024/01/17 04:15:50;;;;;;;9.37;7.73;;;-0.40;99.90;;;;;;5031873;28;20990;-73
2024/01/17 04:18:16;;;;;;;11.07;7.70;;;-0.40;99.90;;;;;;5046808;28;20172;-74
2024/01/17 04:20:42;;;;;;;14.55;8.50;;;-0.30;99.90;;;;;;5045886;28;20265;-73
2024/01/17 04:23:08;;;;;;;9.80;7.50;;;-0.30;99.90;;;;;;5051975;28;20180;-74
2024/01/17 04:25:35;;;;;;;14.07;8.80;;;-0.40;99.90;;;;;;5052231;28;20172;-73
2024/01/17 04:28:06;;;;;;;14.77;7.20;;;-0.40;99.90;;;;;;5061991;28;20313;-74
2024/01/17 04:30:32;;;;;;;10.15;6.63;;;-0.40;99.90;;;;;;5052306;28;20210;-74
2024/01/17 04:32:58;;;;;;;15.25;8.23;;;-0.30;99.90;;;;;;5071043;28;20222;-73
2024/01/17 04:35:23;;;;;;;10.50;9.10;;;-0.40;99.90;;;;;;5065417;28;20648;-73
2024/01/17 04:37:49;;;;;;;14.10;8.13;;;-0.30;99.90;;;;;;5064477;28;20185;-74
2024/01/17 04:40:15;;;;;;;10.80;7.67;;;-0.40;99.90;;;;;;5032944;28;20212;-74
2024/01/17 04:42:41;;;;;;;10.80;8.05;;;-0.40;99.90;;;;;;5070530;28;20531;-74
2024/01/17 04:45:07;;;;;;;14.73;8.83;;;-0.40;99.90;;;;;;5051849;28;20188;-74
2024/01/17 04:47:33;;;;;;;12.45;8.77;;;-0.40;99.90;;;;;;5018711;28;20627;-73
2024/01/17 04:49:59;;;;;;;9.97;7.63;;;-0.40;99.90;;;;;;5062928;28;20185;-74
2024/01/17 04:52:24;;;;;;;14.10;8.80;;;-0.40;99.90;;;;;;5049392;28;20172;-73
2024/01/17 04:54:51;;;;;;;10.13;7.85;;;-0.40;99.90;;;;;;5060110;28;20239;-73
2024/01/17 04:57:51;;;;;;;13.67;9.00;;;-0.50;99.90;;;;;;5067537;28;20211;-74
2024/01/17 05:00:17;;;;;;;13.10;7.20;;;-0.50;99.90;;;;;;5054852;28;20223;-73
2024/01/17 05:02:43;;;;;;;7.67;6.33;;;-0.50;99.90;;;;;;5031492;28;20208;-72
2024/01/17 05:05:10;;;;;;;8.10;6.47;;;-0.50;99.90;;;;;;5015904;28;20588;-73
2024/01/17 05:07:36;;;;;;;15.65;7.57;;;-0.50;99.90;;;;;;5035892;28;20192;-74
2024/01/17 05:10:02;;;;;;;15.43;9.30;;;-0.50;99.90;;;;;;5035953;28;20547;-73
2024/01/17 05:12:27;;;;;;;9.93;7.00;;;-0.50;99.90;;;;;;5003697;28;20174;-73
2024/01/17 05:14:53;;;;;;;8.57;6.53;;;-0.50;99.90;;;;;;5015949;28;21213;-73
2024/01/17 05:17:19;;;;;;;11.40;6.77;;;-0.50;99.90;;;;;;5033816;28;20515;-73
2024/01/17 05:19:44;;;;;;;11.37;7.40;;;-0.50;99.90;;;;;;5035654;28;20600;-72
2024/01/17 05:22:14;;;;;;;8.30;6.33;;;-0.50;99.90;;;;;;5045648;28;20600;-72
2024/01/17 05:24:39;;;;;;;11.52;6.35;;;-0.50;99.90;;;;;;5033243;28;20185;-73
2024/01/17 05:27:05;;;;;;;9.70;6.70;;;-0.40;99.90;;;;;;5016075;28;20205;-73
2024/01/17 05:29:34;;;;;;;10.77;8.10;;;-0.40;99.90;;;;;;5053431;28;20242;-73
2024/01/17 05:32:00;;;;;;;8.75;6.32;;;-0.40;99.90;;;;;;5037903;28;20222;-72
2024/01/17 05:34:26;;;;;;;10.80;7.32;;;-0.40;99.90;;;;;;5035113;28;20208;-73
2024/01/17 05:36:52;;;;;;;10.03;7.20;;;-0.40;99.90;;;;;;5035881;28;20663;-72
2024/01/17 05:39:17;;;;;;;9.80;6.77;;;-0.30;99.90;;;;;;5035142;28;20771;-73
2024/01/17 05:41:43;;;;;;;10.37;6.97;;;-0.30;99.90;;;;;;5031209;28;20532;-74
2024/01/17 05:44:09;;;;;;;10.67;7.33;;;-0.30;99.90;;;;;;5041336;28;20221;-73
2024/01/17 05:46:34;;;;;;;9.67;6.60;;;-0.30;99.90;;;;;;5033462;28;20671;-73
2024/01/17 05:49:00;;;;;;;8.37;5.60;;;-0.20;99.90;;;;;;5036215;28;20842;-73
2024/01/17 05:51:26;;;;;;;14.80;8.07;;;-0.20;99.90;;;;;;5033182;28;20174;-73
2024/01/17 05:53:52;;;;;;;11.50;7.32;;;-0.20;99.90;;;;;;5032820;28;20209;-73
2024/01/17 05:56:17;;;;;;;18.57;9.10;;;-0.20;99.90;;;;;;5033426;28;20678;-73
2024/01/17 05:58:43;;;;;;;13.20;7.47;;;-0.20;99.90;;;;;;5032837;28;20265;-73
2024/01/17 06:01:09;;;;;;;10.23;7.50;;;-0.20;99.90;;;;;;5015573;28;20659;-73
2024/01/17 06:03:34;;;;;;;9.17;6.17;;;-0.20;99.90;;;;;;5033257;28;20177;-74
2024/01/17 06:06:00;;;;;;;8.57;7.07;;;-0.20;99.90;;;;;;5033277;28;20666;-74
2024/01/17 06:08:26;;;;;;;10.00;7.78;;;-0.20;99.90;;;;;;5032572;28;20529;-74
2024/01/17 06:10:52;;;;;;;12.07;7.40;;;-0.20;99.90;;;;;;5032379;28;20193;-72
2024/01/17 06:13:18;;;;;;;15.40;6.87;;;-0.10;99.90;;;;;;5032699;28;20176;-72
2024/01/17 06:15:43;;;;;;;8.10;6.00;;;-0.10;99.90;;;;;;5045651;28;20617;-72
2024/01/17 06:18:09;;;;;;;9.87;7.27;;;0.00;99.90;;;;;;5052754;28;20177;-73
2024/01/17 06:20:36;;;;;;;10.60;7.90;;;-0.10;99.90;;;;;;5052483;28;20193;-73
2024/01/17 06:23:01;;;;;;;15.45;7.93;;;-0.10;99.90;;;;;;5014597;28;20189;-72
2024/01/17 06:25:27;;;;;;;12.60;8.00;;;0.00;99.90;;;;;;5051687;28;20593;-73
2024/01/17 06:27:53;;;;;;;10.03;7.60;;;-0.10;99.90;;;;;;5026084;28;20205;-71
2024/01/17 06:30:18;;;;;;;13.70;7.90;;;-0.10;99.90;;;;;;5037085;28;20284;-73
2024/01/17 06:32:44;;;;;;;14.47;7.83;;;-0.10;99.90;;;;;;5032466;28;20640;-73
2024/01/17 06:35:10;;;;;;;9.87;6.97;;;-0.10;99.90;;;;;;5014219;28;20178;-73
2024/01/17 06:37:36;;;;;;;11.40;7.77;;;0.00;99.90;;;;;;5017248;28;20705;-73
2024/01/17 06:40:01;;;;;;;12.03;8.20;;;0.10;99.90;;;;;;5052157;28;20670;-73
2024/01/17 06:42:27;;;;;;;9.80;7.63;;;0.10;99.90;;;;;;5023492;28;20606;-73
2024/01/17 06:44:53;;;;;;;11.23;7.93;;;0.20;99.90;;;;;;5051809;28;20172;-75
2024/01/17 06:47:18;;;;;;;12.60;8.33;;;0.20;99.90;;;;;;5052121;28;20597;-74
2024/01/17 06:49:44;;;;;;;15.43;6.97;;;0.20;99.90;;;;;;5035828;28;20201;-73
2024/01/17 06:52:10;;;;;;;9.33;7.03;;;0.20;99.90;;;;;;5045433;28;20178;-73
2024/01/17 06:54:35;;;;;;;13.40;8.70;;;0.20;99.90;;;;;;5050953;28;20178;-74
2024/01/17 06:57:02;;;;;;;9.60;6.83;;;0.30;99.90;;;;;;5045854;28;20177;-74
2024/01/17 06:59:32;;;;;;;9.63;6.10;;;0.30;99.90;;;;;;5040643;28;20192;-74
2024/01/17 07:01:58;;;;;;;15.57;8.10;;;0.30;99.90;;;;;;5043106;28;20170;-74
2024/01/17 07:04:24;;;;;;;13.80;8.33;;;0.40;99.90;;;;;;5023346;28;20188;-74
2024/01/17 07:06:49;;;;;;;11.10;6.87;;;0.30;99.90;;;;;;5013825;28;20635;-74
2024/01/17 07:09:15;;;;;;;15.23;8.63;;;0.40;99.90;;;;;;5013967;28;20668;-74
2024/01/17 07:11:41;;;;;;;12.93;7.80;;;0.40;99.90;;;;;;5014325;28;20177;-74
2024/01/17 07:14:07;;;;;;;11.98;7.30;;;0.30;99.90;;;;;;5031347;28;20205;-75
2024/01/17 07:16:33;;;;;;;9.50;6.50;;;0.40;99.90;;;;;;5024047;28;20218;-74
2024/01/17 07:19:00;;;;;;;12.05;7.78;;;0.40;99.90;;;;;;5045315;28;20186;-74
2024/01/17 07:21:26;;;;;;;11.20;8.43;;;0.50;99.90;;;;;;5022956;28;20272;-75
2024/01/17 07:23:52;;;;;;;12.25;8.50;;;0.50;99.90;;;;;;5038609;28;20257;-74
2024/01/17 07:26:17;;;;;;;8.97;5.97;;;0.40;99.90;;;;;;5022071;28;20170;-74
2024/01/17 07:28:43;;;;;;;13.40;7.70;;;0.50;99.90;;;;;;5013410;28;21000;-74
2024/01/17 07:31:09;;;;;;;13.33;7.47;;;0.50;99.90;;;;;;5019217;28;20180;-74
2024/01/17 07:33:34;;;;;;;9.70;6.93;;;0.50;99.90;;;;;;5039779;28;20177;-74
2024/01/17 07:36:00;;;;;;;10.20;7.00;;;0.60;99.90;;;;;;5018409;28;20603;-74
2024/01/17 07:38:26;;;;;;;9.48;6.93;;;0.60;99.90;;;;;;5021117;28;20272;-74
2024/01/17 07:40:53;;;;;;;13.00;7.20;;;0.60;99.90;;;;;;5043346;28;20582;-74
2024/01/17 07:43:25;;;;;;;16.63;7.95;;;0.70;99.90;;;;;;5066895;28;20776;-74
2024/01/17 07:45:52;;;;;;;12.30;6.90;;;0.70;99.90;;;;;;5066657;28;20728;-73
2024/01/17 07:48:19;;;;;;;5.68;5.00;;;0.80;99.90;;;;;;5065551;28;20192;-74
2024/01/17 07:50:45;;;;;;;8.15;6.28;;;0.80;99.90;;;;;;5049326;28;20219;-74
2024/01/17 07:53:11;;;;;;;15.20;8.10;;;0.90;99.90;;;;;;5041953;28;20204;-74
2024/01/17 07:55:37;;;;;;;8.00;7.10;;;0.80;99.90;;;;;;5046929;28;20181;-73
2024/01/17 07:58:03;;;;;;;8.60;6.45;;;0.80;99.90;;;;;;5047109;28;20693;-75
2024/01/17 08:00:30;;;;;;;11.40;6.90;;;0.80;99.90;;;;;;5045925;28;20201;-74
2024/01/17 08:02:55;;;;;;;12.77;7.35;;;0.90;99.90;;;;;;5045544;28;20644;-74
2024/01/17 08:05:21;;;;;;;11.60;7.20;;;0.90;99.90;;;;;;5044708;28;20249;-74
2024/01/17 08:07:47;;;;;;;9.80;7.47;;;0.90;99.90;;;;;;5047172;28;20601;-74
2024/01/17 08:10:13;;;;;;;9.50;6.80;;;1.00;99.90;;;;;;5047392;28;20305;-75
2024/01/17 08:12:39;;;;;;;8.67;6.63;;;1.00;99.90;;;;;;5047032;28;20602;-75
2024/01/17 08:15:08;;;;;;;13.53;7.97;;;1.00;99.90;;;;;;5046741;28;20653;-75
2024/01/17 08:17:34;;;;;;;9.55;6.57;;;1.00;99.90;;;;;;5075622;28;20188;-74
2024/01/17 08:19:59;;;;;;;14.38;7.90;;;1.00;99.90;;;;;;5043676;28;20205;-74
2024/01/17 08:22:25;;;;;;;16.53;7.43;;;1.00;99.90;;;;;;5062189;23;20270;-75
2024/01/17 08:24:51;;;;;;;9.80;6.45;;;1.00;99.90;;;;;;5038364;28;20192;-76
2024/01/17 08:27:17;;;;;;;9.20;7.33;;;1.00;99.90;;;;;;5039802;28;20191;-76
2024/01/17 08:29:45;;;;;;;12.63;8.20;;;1.10;99.90;;;;;;5056452;28;20638;-76
2024/01/17 08:32:11;;;;;;;8.75;5.63;;;1.10;99.90;;;;;;5028428;28;21252;-75
2024/01/17 08:34:36;;;;;;;12.52;6.00;;;1.10;99.90;;;;;;5034442;28;20208;-76
2024/01/17 08:37:03;;;;;;;7.77;6.97;;;1.10;99.90;;;;;;5026779;28;21146;-76
2024/01/17 08:39:29;;;;;;;9.77;6.60;;;1.10;99.90;;;;;;5053690;28;20183;-76
2024/01/17 08:41:55;;;;;;;8.13;6.20;;;1.10;99.90;;;;;;5050484;28;20565;-76
2024/01/17 08:44:22;;;;;;;13.68;7.05;;;1.10;99.90;;;;;;5044765;28;20665;-76
2024/01/17 08:46:48;;;;;;;12.05;8.13;;;1.20;99.90;;;;;;5012977;28;20177;-76
2024/01/17 08:49:14;;;;;;;9.20;6.70;;;1.10;99.90;;;;;;5045026;28;20224;-76
2024/01/17 08:51:40;;;;;;;8.77;7.72;;;1.20;99.90;;;;;;5021243;28;20195;-76
2024/01/17 08:54:05;;;;;;;11.13;7.30;;;1.20;99.90;;;;;;5031331;28;20178;-76
2024/01/17 08:56:32;;;;;;;13.13;6.70;;;1.20;99.90;;;;;;5016750;28;20233;-77
2024/01/17 08:58:58;;;;;;;11.00;6.70;;;1.20;99.90;;;;;;4982987;28;20208;-76
2024/01/17 09:01:24;;;;;;;12.98;7.82;;;1.20;99.90;;;;;;4997855;28;20208;-77
2024/01/17 09:03:50;;;;;;;14.87;7.37;;;1.20;99.90;;;;;;5012518;28;20190;-76
2024/01/17 09:06:16;;;;;;;12.32;7.40;;;1.20;99.90;;;;;;4995116;28;20539;-77
2024/01/17 09:08:42;;;;;;;9.57;6.87;;;1.20;99.90;;;;;;5016242;28;20174;-76
2024/01/17 09:11:08;;;;;;;10.47;7.67;;;1.20;99.90;;;;;;5008674;28;20217;-76
2024/01/17 09:13:34;;;;;;;13.10;7.70;;;1.20;99.90;;;;;;4997943;28;20198;-76
2024/01/17 09:16:00;;;;;;;12.80;7.67;;;1.20;99.90;;;;;;4998953;28;20231;-75
2024/01/17 09:18:26;;;;;;;10.65;8.40;;;1.20;99.90;;;;;;5031473;28;20576;-75
2024/01/17 09:20:52;;;;;;;13.17;7.23;;;1.10;99.90;;;;;;4982033;28;20227;-75
2024/01/17 09:23:18;;;;;;;12.65;7.80;;;1.10;99.90;;;;;;5024290;28;20323;-75
2024/01/17 09:25:44;;;;;;;14.30;8.37;;;1.20;99.90;;;;;;5028451;28;20182;-75
2024/01/17 09:28:10;;;;;;;11.02;6.75;;;1.20;99.90;;;;;;5010051;28;20186;-75
2024/01/17 09:30:36;;;;;;;10.80;7.67;;;1.20;99.90;;;;;;5019498;28;20654;-75
2024/01/17 09:33:01;;;;;;;13.53;7.93;;;1.30;99.90;;;;;;4982355;28;20736;-76
2024/01/17 09:35:28;;;;;;;9.77;6.97;;;1.30;99.90;;;;;;4993585;28;20169;-77
2024/01/17 09:37:53;;;;;;;10.23;6.63;;;1.40;99.90;;;;;;5006380;28;20180;-75
2024/01/17 09:40:21;;;;;;;9.63;5.70;;;1.50;99.90;;;;;;5024921;28;20257;-75
2024/01/17 09:42:47;;;;;;;16.42;8.60;;;1.50;99.90;;;;;;4981173;28;20809;-76
2024/01/17 09:45:17;;;;;;;9.33;6.60;;;1.60;99.90;;;;;;5029164;28;20174;-80
2024/01/17 09:47:44;;;;;;;13.73;7.28;;;1.70;99.90;;;;;;5027756;28;20572;-76
2024/01/17 09:50:10;;;;;;;9.80;6.50;;;1.80;99.90;;;;;;4994821;28;20629;-76
2024/01/17 09:52:39;;;;;;;14.00;8.43;;;1.80;99.90;;;;;;4991645;28;20243;-77
2024/01/17 09:55:08;;;;;;;12.00;7.70;;;1.80;99.90;;;;;;5003331;28;20205;-77
2024/01/17 09:57:37;;;;;;;13.18;7.32;;;1.90;99.90;;;;;;4998997;28;20174;-76
2024/01/17 10:00:08;;;;;;;9.85;7.80;;;1.90;99.90;;;;;;4994383;28;20182;-76
2024/01/17 10:02:38;;;;;;;12.40;8.40;;;1.90;99.90;;;;;;5010344;28;20703;-76
2024/01/17 10:05:11;;;;;;;11.85;8.15;;;1.90;99.90;;;;;;4996327;28;20189;-77
2024/01/17 10:07:38;;;;;;;13.18;8.25;;;1.90;99.90;;;;;;4995960;28;20557;-76
2024/01/17 10:10:04;;;;;;;13.65;7.88;;;2.00;99.90;;;;;;5016896;28;20589;-76
2024/01/17 10:12:30;;;;;;;15.40;8.20;;;2.00;99.90;;;;;;5040736;28;20201;-77
2024/01/17 10:14:56;;;;;;;13.60;8.97;;;2.00;99.90;;;;;;5027911;28;20175;-77
2024/01/17 10:17:22;;;;;;;10.07;9.00;;;2.00;99.90;;;;;;4996526;28;20267;-77
2024/01/17 10:19:48;;;;;;;10.47;8.40;;;2.00;99.90;;;;;;5028640;28;20593;-76
2024/01/17 10:22:14;;;;;;;14.60;8.43;;;2.00;99.90;;;;;;5014432;28;20648;-77
2024/01/17 10:24:41;;;;;;;12.70;7.72;;;2.00;99.90;;;;;;5009919;28;20631;-77
2024/01/17 10:27:06;;;;;;;8.15;6.88;;;2.10;99.90;;;;;;4996631;28;20182;-77
2024/01/17 10:29:37;;;;;;;12.67;8.10;;;2.00;99.90;;;;;;5025572;28;20181;-77
2024/01/17 10:32:03;;;;;;;9.38;7.35;;;2.10;99.90;;;;;;4961248;28;20206;-77
2024/01/17 10:34:30;;;;;;;10.50;7.60;;;2.20;99.90;;;;;;4992938;28;20277;-76
2024/01/17 10:37:02;;;;;;;12.23;7.47;;;2.10;99.90;;;;;;5005346;28;20185;-77
2024/01/17 10:39:29;;;;;;;14.23;8.30;;;2.10;99.90;;;;;;5029639;28;20189;-77
2024/01/17 10:41:56;;;;;;;10.68;8.55;;;2.10;99.90;;;;;;5005826;28;20202;-77
2024/01/17 10:44:22;;;;;;;12.68;8.65;;;2.10;99.90;;;;;;4976732;28;20265;-78
2024/01/17 10:47:39;;;;;;;;;;;;;;;;;;;;;
2024/01/17 10:50:10;;;;;;;13.40;8.85;;;2.10;99.90;;;;;;4997521;28;20191;-73
2024/01/17 10:52:40;;;;;;;17.17;10.30;;;2.20;99.90;;;;;;5025663;28;20570;-73
2024/01/17 10:55:13;;;;;;;13.75;9.68;;;2.10;99.90;;;;;;4992222;28;20233;-73
2024/01/17 10:57:42;;;;;;;15.48;8.80;;;2.20;99.90;;;;;;4992870;28;20217;-73
2024/01/17 11:00:15;;;;;;;15.55;6.40;;;2.30;99.90;;;;;;4989546;28;20197;-73
2024/01/17 11:02:43;;;;;;;8.93;7.30;;;2.30;99.90;;;;;;4979187;28;20371;-75
2024/01/17 11:05:16;;;;;;;10.18;7.25;;;2.40;99.90;;;;;;4995709;28;20178;-74
2024/01/17 11:07:43;;;;;;;10.68;8.98;;;2.50;99.90;;;;;;5012566;28;20178;-74
2024/01/17 11:10:09;;;;;;;12.60;8.57;;;2.50;99.90;;;;;;4999468;28;20177;-72
2024/01/17 11:12:41;;;;;;;15.38;7.68;;;2.50;99.90;;;;;;5024124;28;20202;-73
2024/01/17 11:15:09;;;;;;;12.65;8.68;;;2.60;99.90;;;;;;4976527;28;20236;-74
2024/01/17 11:17:36;;;;;;;12.15;7.32;;;2.50;99.90;;;;;;4992379;28;20237;-75
2024/01/17 11:20:08;;;;;;;9.57;7.18;;;2.60;99.90;;;;;;4976965;28;20181;-74
2024/01/17 11:22:38;;;;;;;16.08;8.85;;;2.50;99.90;;;;;;4992622;28;20698;-74
2024/01/17 11:25:17;;;;;;;12.07;8.80;;;2.60;99.90;;;;;;4992423;28;20220;-74
2024/01/17 11:28:09;;;;;;;9.50;6.95;;;2.50;99.90;;;;;;5012748;28;20181;-74
2024/01/17 11:30:40;;;;;;;11.30;7.32;;;2.50;99.90;;;;;;4992310;28;20178;-74
2024/01/17 11:33:10;;;;;;;13.60;7.40;;;2.60;99.90;;;;;;4997177;28;20203;-74
2024/01/17 11:35:49;;;;;;;10.57;6.80;;;2.60;99.90;;;;;;5021123;28;20209;-74
2024/01/17 11:38:24;;;;;;;11.40;7.90;;;2.60;99.90;;;;;;4976426;28;20265;-74
2024/01/17 11:40:53;;;;;;;9.48;6.80;;;2.50;99.90;;;;;;4992734;28;20224;-74
2024/01/17 11:43:19;;;;;;;9.90;7.15;;;2.50;99.90;;;;;;4992066;28;20271;-74
2024/01/17 11:45:50;;;;;;;14.85;9.73;;;2.50;99.90;;;;;;5000500;28;20173;-77
2024/01/17 11:48:24;;;;;;;13.75;10.18;;;2.50;99.90;;;;;;5006162;28;20206;-74
2024/01/17 11:50:57;;;;;;;12.68;8.25;;;2.50;99.90;;;;;;5010911;28;20668;-75
2024/01/17 11:53:24;;;;;;;8.93;7.50;;;2.50;99.90;;;;;;5025741;28;20201;-75
2024/01/17 11:55:51;;;;;;;10.10;7.30;;;2.40;99.90;;;;;;5013750;28;20264;-75
2024/01/17 11:58:17;;;;;;;8.48;7.10;;;2.40;99.90;;;;;;5011442;28;20170;-74
2024/01/17 12:00:43;;;;;;;9.18;7.10;;;2.40;99.90;;;;;;5019878;28;20177;-74
2024/01/17 12:03:10;;;;;;;10.55;8.07;;;2.40;99.90;;;;;;5005725;28;20206;-75
2024/01/17 12:05:36;;;;;;;11.25;7.93;;;2.40;99.90;;;;;;5026821;28;20268;-74
2024/01/17 12:08:05;;;;;;;11.55;8.98;;;2.40;99.90;;;;;;4998274;28;20264;-74
2024/01/17 12:10:31;;;;;;;12.27;8.35;;;2.30;99.90;;;;;;4996216;28;20261;-73
2024/01/17 12:13:00;;;;;;;10.68;7.28;;;2.30;99.90;;;;;;4992301;28;20761;-74
2024/01/17 12:15:25;;;;;;;9.80;8.10;;;2.30;99.90;;;;;;5009418;28;20178;-74
2024/01/17 12:17:51;;;;;;;12.13;8.20;;;2.30;99.90;;;;;;4991819;28;20182;-74
2024/01/17 12:20:18;;;;;;;11.30;8.60;;;2.30;99.90;;;;;;5003222;28;20233;-74
2024/01/17 12:22:50;;;;;;;12.13;7.78;;;2.30;99.90;;;;;;5028179;28;20206;-74
2024/01/17 12:25:22;;;;;;;12.20;9.00;;;2.30;99.90;;;;;;5014565;28;20224;-74
2024/01/17 12:27:55;;;;;;;11.02;7.90;;;2.40;99.90;;;;;;5010897;28;20182;-74
2024/01/17 12:30:21;;;;;;;11.43;8.00;;;2.40;99.90;;;;;;4995206;28;20237;-73
2024/01/17 12:32:47;;;;;;;11.03;8.13;;;2.40;99.90;;;;;;5028325;28;20205;-75
2024/01/17 12:35:14;;;;;;;10.27;7.50;;;2.50;99.90;;;;;;5004639;28;20176;-74
2024/01/17 12:37:40;;;;;;;10.10;7.13;;;2.60;99.90;;;;;;4978522;28;20599;-74
2024/01/17 12:40:06;;;;;;;14.83;8.13;;;2.60;99.90;;;;;;5024835;28;20249;-74
2024/01/17 12:42:35;;;;;;;11.52;8.73;;;2.60;99.90;;;;;;5013593;28;20651;-74
2024/01/17 12:45:01;;;;;;;9.85;7.75;;;2.50;99.90;;;;;;4994562;28;20198;-74